sensor_id;sensor_type;location;lat;lon;timestamp;P1;durP1;ratioP1;P2;durP2;ratioP2
6143;SDS011;3103;49.492;8.474;2022-08-21T00:00:13;8.55;;;5.00;;
6143;SDS011;3103;49.492;8.474;2022-08-21T00:03:03;8.52;;;4.63;;
6143;SDS011;3103;49.492;8.474;2022-08-21T00:05:35;9.73;;;4.45;;
6143;SDS011;3103;49.492;8.474;2022-08-21T00:08:04;7.40;;;3.80;;
6143;SDS011;3103;49.492;8.474;2022-08-21T00:10:31;10.45;;;4.03;;
6143;SDS011;3103;49.492;8.474;2022-08-21T00:12:59;7.47;;;3.78;;
6143;SDS011;3103;49.492;8.474;2022-08-21T00:15:28;9.55;;;4.80;;
6143;SDS011;3103;49.492;8.474;2022-08-21T00:17:57;7.53;;;4.38;;
6143;SDS011;3103;49.492;8.474;2022-08-21T00:20:25;13.18;;;4.47;;
6143;SDS011;3103;49.492;8.474;2022-08-21T00:22:52;7.93;;;4.70;;
6143;SDS011;3103;49.492;8.474;2022-08-21T00:25:21;42.17;;;27.77;;
6143;SDS011;3103;49.492;8.474;2022-08-21T00:27:51;15.98;;;9.38;;
6143;SDS011;3103;49.492;8.474;2022-08-21T00:30:20;18.70;;;11.57;;
6143;SDS011;3103;49.492;8.474;2022-08-21T00:32:49;11.35;;;6.13;;
6143;SDS011;3103;49.492;8.474;2022-08-21T00:35:18;14.80;;;9.50;;
6143;SDS011;3103;49.492;8.474;2022-08-21T00:37:48;33.63;;;23.48;;
6143;SDS011;3103;49.492;8.474;2022-08-21T00:40:16;24.70;;;14.95;;
6143;SDS011;3103;49.492;8.474;2022-08-21T00:42:45;46.65;;;31.60;;
6143;SDS011;3103;49.492;8.474;2022-08-21T00:45:20;40.92;;;27.92;;
6143;SDS011;3103;49.492;8.474;2022-08-21T00:47:48;27.92;;;20.55;;
6143;SDS011;3103;49.492;8.474;2022-08-21T00:50:16;40.15;;;29.08;;
6143;SDS011;3103;49.492;8.474;2022-08-21T00:52:48;33.30;;;25.80;;
6143;SDS011;3103;49.492;8.474;2022-08-21T00:55:18;27.35;;;20.65;;
6143;SDS011;3103;49.492;8.474;2022-08-21T00:57:50;21.27;;;12.43;;
6143;SDS011;3103;49.492;8.474;2022-08-21T01:00:19;13.30;;;7.85;;
6143;SDS011;3103;49.492;8.474;2022-08-21T01:02:58;12.65;;;6.05;;
6143;SDS011;3103;49.492;8.474;2022-08-21T01:05:26;13.13;;;6.40;;
6143;SDS011;3103;49.492;8.474;2022-08-21T01:07:54;10.15;;;5.57;;
6143;SDS011;3103;49.492;8.474;2022-08-21T01:10:23;9.60;;;4.40;;
6143;SDS011;3103;49.492;8.474;2022-08-21T01:12:51;12.63;;;5.47;;
6143;SDS011;3103;49.492;8.474;2022-08-21T01:15:22;8.95;;;4.35;;
6143;SDS011;3103;49.492;8.474;2022-08-21T01:17:50;9.57;;;4.75;;
6143;SDS011;3103;49.492;8.474;2022-08-21T01:20:17;9.18;;;4.30;;
6143;SDS011;3103;49.492;8.474;2022-08-21T01:22:44;7.65;;;4.03;;
6143;SDS011;3103;49.492;8.474;2022-08-21T01:25:12;10.18;;;4.28;;
6143;SDS011;3103;49.492;8.474;2022-08-21T01:27:41;9.40;;;4.13;;
6143;SDS011;3103;49.492;8.474;2022-08-21T01:32:41;7.57;;;4.10;;
6143;SDS011;3103;49.492;8.474;2022-08-21T01:35:08;7.80;;;3.90;;
6143;SDS011;3103;49.492;8.474;2022-08-21T01:37:38;7.72;;;4.03;;
6143;SDS011;3103;49.492;8.474;2022-08-21T01:40:06;9.60;;;3.75;;
6143;SDS011;3103;49.492;8.474;2022-08-21T01:42:34;7.88;;;4.45;;
6143;SDS011;3103;49.492;8.474;2022-08-21T01:45:02;8.55;;;3.83;;
6143;SDS011;3103;49.492;8.474;2022-08-21T01:47:30;7.45;;;3.50;;
6143;SDS011;3103;49.492;8.474;2022-08-21T01:49:56;9.88;;;3.97;;
6143;SDS011;3103;49.492;8.474;2022-08-21T01:52:23;6.15;;;3.67;;
6143;SDS011;3103;49.492;8.474;2022-08-21T01:54:50;5.60;;;3.47;;
6143;SDS011;3103;49.492;8.474;2022-08-21T01:57:21;7.25;;;4.15;;
6143;SDS011;3103;49.492;8.474;2022-08-21T01:59:52;10.05;;;3.72;;
6143;SDS011;3103;49.492;8.474;2022-08-21T02:02:19;8.65;;;3.92;;
6143;SDS011;3103;49.492;8.474;2022-08-21T02:04:45;5.72;;;3.72;;
6143;SDS011;3103;49.492;8.474;2022-08-21T02:07:12;5.15;;;3.67;;
6143;SDS011;3103;49.492;8.474;2022-08-21T02:09:39;7.50;;;3.60;;
6143;SDS011;3103;49.492;8.474;2022-08-21T02:12:09;7.25;;;3.72;;
6143;SDS011;3103;49.492;8.474;2022-08-21T02:14:37;6.32;;;3.28;;
6143;SDS011;3103;49.492;8.474;2022-08-21T02:17:04;11.35;;;3.83;;
6143;SDS011;3103;49.492;8.474;2022-08-21T02:19:36;8.68;;;3.83;;
6143;SDS011;3103;49.492;8.474;2022-08-21T02:22:09;7.85;;;3.50;;
6143;SDS011;3103;49.492;8.474;2022-08-21T02:24:37;7.95;;;3.63;;
6143;SDS011;3103;49.492;8.474;2022-08-21T02:27:24;8.95;;;4.07;;
6143;SDS011;3103;49.492;8.474;2022-08-21T02:29:54;8.85;;;3.50;;
6143;SDS011;3103;49.492;8.474;2022-08-21T02:32:22;9.55;;;4.00;;
6143;SDS011;3103;49.492;8.474;2022-08-21T02:34:48;10.00;;;3.63;;
6143;SDS011;3103;49.492;8.474;2022-08-21T02:37:16;9.48;;;3.63;;
6143;SDS011;3103;49.492;8.474;2022-08-21T02:39:43;8.45;;;3.60;;
6143;SDS011;3103;49.492;8.474;2022-08-21T02:42:10;9.70;;;3.70;;
6143;SDS011;3103;49.492;8.474;2022-08-21T02:44:37;6.97;;;3.50;;
6143;SDS011;3103;49.492;8.474;2022-08-21T02:47:03;5.60;;;3.00;;
6143;SDS011;3103;49.492;8.474;2022-08-21T02:49:30;7.30;;;4.10;;
6143;SDS011;3103;49.492;8.474;2022-08-21T02:51:57;7.15;;;3.05;;
6143;SDS011;3103;49.492;8.474;2022-08-21T02:54:24;10.02;;;3.42;;
6143;SDS011;3103;49.492;8.474;2022-08-21T02:56:51;6.65;;;3.25;;
6143;SDS011;3103;49.492;8.474;2022-08-21T02:59:17;8.00;;;3.40;;
6143;SDS011;3103;49.492;8.474;2022-08-21T03:01:44;5.97;;;3.05;;
6143;SDS011;3103;49.492;8.474;2022-08-21T03:04:11;7.00;;;3.88;;
6143;SDS011;3103;49.492;8.474;2022-08-21T03:06:38;4.95;;;2.95;;
6143;SDS011;3103;49.492;8.474;2022-08-21T03:09:04;10.65;;;3.58;;
6143;SDS011;3103;49.492;8.474;2022-08-21T03:11:32;7.80;;;2.97;;
6143;SDS011;3103;49.492;8.474;2022-08-21T03:13:59;6.35;;;3.30;;
6143;SDS011;3103;49.492;8.474;2022-08-21T03:16:26;8.18;;;2.97;;
6143;SDS011;3103;49.492;8.474;2022-08-21T03:18:58;11.13;;;3.53;;
6143;SDS011;3103;49.492;8.474;2022-08-21T03:21:25;9.57;;;3.38;;
6143;SDS011;3103;49.492;8.474;2022-08-21T03:23:52;7.78;;;3.08;;
6143;SDS011;3103;49.492;8.474;2022-08-21T03:26:20;6.20;;;2.70;;
6143;SDS011;3103;49.492;8.474;2022-08-21T03:28:48;6.70;;;3.17;;
6143;SDS011;3103;49.492;8.474;2022-08-21T03:31:15;8.93;;;3.83;;
6143;SDS011;3103;49.492;8.474;2022-08-21T03:33:42;11.02;;;3.60;;
6143;SDS011;3103;49.492;8.474;2022-08-21T03:36:09;6.40;;;2.95;;
6143;SDS011;3103;49.492;8.474;2022-08-21T03:38:37;7.10;;;3.17;;
6143;SDS011;3103;49.492;8.474;2022-08-21T03:41:04;5.40;;;3.25;;
6143;SDS011;3103;49.492;8.474;2022-08-21T03:43:33;4.90;;;3.10;;
6143;SDS011;3103;49.492;8.474;2022-08-21T03:46:01;7.70;;;3.30;;
6143;SDS011;3103;49.492;8.474;2022-08-21T03:48:30;4.43;;;2.92;;
6143;SDS011;3103;49.492;8.474;2022-08-21T03:50:57;4.90;;;3.03;;
6143;SDS011;3103;49.492;8.474;2022-08-21T03:53:24;7.47;;;3.42;;
6143;SDS011;3103;49.492;8.474;2022-08-21T03:55:51;10.75;;;3.20;;
6143;SDS011;3103;49.492;8.474;2022-08-21T03:58:21;4.68;;;2.80;;
6143;SDS011;3103;49.492;8.474;2022-08-21T04:00:51;8.60;;;3.13;;
6143;SDS011;3103;49.492;8.474;2022-08-21T04:03:19;5.50;;;3.00;;
6143;SDS011;3103;49.492;8.474;2022-08-21T04:05:46;7.88;;;3.10;;
6143;SDS011;3103;49.492;8.474;2022-08-21T04:08:13;7.15;;;3.53;;
6143;SDS011;3103;49.492;8.474;2022-08-21T04:10:44;10.52;;;3.30;;
6143;SDS011;3103;49.492;8.474;2022-08-21T04:13:20;4.75;;;2.92;;
6143;SDS011;3103;49.492;8.474;2022-08-21T04:15:47;8.70;;;3.47;;
6143;SDS011;3103;49.492;8.474;2022-08-21T04:18:14;6.05;;;2.92;;
6143;SDS011;3103;49.492;8.474;2022-08-21T04:20:42;7.32;;;3.60;;
6143;SDS011;3103;49.492;8.474;2022-08-21T04:23:16;5.82;;;3.17;;
6143;SDS011;3103;49.492;8.474;2022-08-21T04:25:50;7.35;;;3.60;;
6143;SDS011;3103;49.492;8.474;2022-08-21T04:28:18;6.70;;;3.22;;
6143;SDS011;3103;49.492;8.474;2022-08-21T04:30:45;7.22;;;3.40;;
6143;SDS011;3103;49.492;8.474;2022-08-21T04:33:13;9.18;;;3.42;;
6143;SDS011;3103;49.492;8.474;2022-08-21T04:35:40;5.72;;;3.08;;
6143;SDS011;3103;49.492;8.474;2022-08-21T04:38:08;9.02;;;3.40;;
6143;SDS011;3103;49.492;8.474;2022-08-21T04:40:35;10.82;;;4.03;;
6143;SDS011;3103;49.492;8.474;2022-08-21T04:43:07;5.07;;;3.30;;
6143;SDS011;3103;49.492;8.474;2022-08-21T04:45:39;10.30;;;3.90;;
6143;SDS011;3103;49.492;8.474;2022-08-21T04:48:09;9.65;;;3.40;;
6143;SDS011;3103;49.492;8.474;2022-08-21T04:50:45;11.57;;;3.88;;
6143;SDS011;3103;49.492;8.474;2022-08-21T04:53:22;6.18;;;3.50;;
6143;SDS011;3103;49.492;8.474;2022-08-21T04:55:54;6.53;;;3.42;;
6143;SDS011;3103;49.492;8.474;2022-08-21T04:58:24;7.47;;;3.50;;
6143;SDS011;3103;49.492;8.474;2022-08-21T05:00:54;8.82;;;3.53;;
6143;SDS011;3103;49.492;8.474;2022-08-21T05:03:24;6.80;;;3.15;;
6143;SDS011;3103;49.492;8.474;2022-08-21T05:05:51;4.30;;;3.38;;
6143;SDS011;3103;49.492;8.474;2022-08-21T05:08:18;6.10;;;3.50;;
6143;SDS011;3103;49.492;8.474;2022-08-21T05:10:47;7.25;;;3.42;;
6143;SDS011;3103;49.492;8.474;2022-08-21T05:13:14;8.80;;;3.60;;
6143;SDS011;3103;49.492;8.474;2022-08-21T05:15:42;6.80;;;3.08;;
6143;SDS011;3103;49.492;8.474;2022-08-21T05:18:09;6.75;;;3.42;;
6143;SDS011;3103;49.492;8.474;2022-08-21T05:20:35;7.68;;;3.50;;
6143;SDS011;3103;49.492;8.474;2022-08-21T05:23:07;6.32;;;3.42;;
6143;SDS011;3103;49.492;8.474;2022-08-21T05:25:36;4.88;;;3.38;;
6143;SDS011;3103;49.492;8.474;2022-08-21T05:28:03;7.00;;;3.38;;
6143;SDS011;3103;49.492;8.474;2022-08-21T05:30:32;5.22;;;3.55;;
6143;SDS011;3103;49.492;8.474;2022-08-21T05:33:00;6.93;;;3.60;;
6143;SDS011;3103;49.492;8.474;2022-08-21T05:35:28;8.27;;;3.70;;
6143;SDS011;3103;49.492;8.474;2022-08-21T05:37:55;8.48;;;3.30;;
6143;SDS011;3103;49.492;8.474;2022-08-21T05:40:23;7.90;;;3.60;;
6143;SDS011;3103;49.492;8.474;2022-08-21T05:42:50;10.10;;;3.70;;
6143;SDS011;3103;49.492;8.474;2022-08-21T05:45:21;6.97;;;3.70;;
6143;SDS011;3103;49.492;8.474;2022-08-21T05:50:49;6.32;;;3.33;;
6143;SDS011;3103;49.492;8.474;2022-08-21T05:53:18;6.28;;;3.90;;
6143;SDS011;3103;49.492;8.474;2022-08-21T05:55:47;8.30;;;3.38;;
6143;SDS011;3103;49.492;8.474;2022-08-21T05:58:15;7.82;;;3.95;;
6143;SDS011;3103;49.492;8.474;2022-08-21T06:00:44;9.30;;;3.78;;
6143;SDS011;3103;49.492;8.474;2022-08-21T06:03:15;6.22;;;3.58;;
6143;SDS011;3103;49.492;8.474;2022-08-21T06:05:55;6.13;;;3.30;;
6143;SDS011;3103;49.492;8.474;2022-08-21T06:08:23;10.50;;;3.72;;
6143;SDS011;3103;49.492;8.474;2022-08-21T06:10:51;8.32;;;3.72;;
6143;SDS011;3103;49.492;8.474;2022-08-21T06:13:19;6.70;;;3.40;;
6143;SDS011;3103;49.492;8.474;2022-08-21T06:15:47;9.57;;;3.92;;
6143;SDS011;3103;49.492;8.474;2022-08-21T06:18:14;7.80;;;4.18;;
6143;SDS011;3103;49.492;8.474;2022-08-21T06:20:41;8.13;;;3.55;;
6143;SDS011;3103;49.492;8.474;2022-08-21T06:23:08;8.45;;;3.30;;
6143;SDS011;3103;49.492;8.474;2022-08-21T06:25:35;8.40;;;3.38;;
6143;SDS011;3103;49.492;8.474;2022-08-21T06:28:09;4.75;;;3.25;;
6143;SDS011;3103;49.492;8.474;2022-08-21T06:30:37;7.03;;;3.78;;
6143;SDS011;3103;49.492;8.474;2022-08-21T06:33:05;8.93;;;4.05;;
6143;SDS011;3103;49.492;8.474;2022-08-21T06:35:34;6.85;;;3.22;;
6143;SDS011;3103;49.492;8.474;2022-08-21T06:38:01;7.43;;;3.30;;
6143;SDS011;3103;49.492;8.474;2022-08-21T06:40:28;7.82;;;3.70;;
6143;SDS011;3103;49.492;8.474;2022-08-21T06:43:08;7.82;;;3.38;;
6143;SDS011;3103;49.492;8.474;2022-08-21T06:45:40;7.68;;;3.53;;
6143;SDS011;3103;49.492;8.474;2022-08-21T06:48:08;7.28;;;3.45;;
6143;SDS011;3103;49.492;8.474;2022-08-21T06:50:35;6.63;;;3.17;;
6143;SDS011;3103;49.492;8.474;2022-08-21T06:53:04;10.80;;;4.13;;
6143;SDS011;3103;49.492;8.474;2022-08-21T06:55:33;7.38;;;3.88;;
6143;SDS011;3103;49.492;8.474;2022-08-21T06:58:00;7.85;;;3.20;;
6143;SDS011;3103;49.492;8.474;2022-08-21T07:00:27;6.72;;;3.85;;
6143;SDS011;3103;49.492;8.474;2022-08-21T07:02:54;7.60;;;3.67;;
6143;SDS011;3103;49.492;8.474;2022-08-21T07:05:21;7.22;;;4.00;;
6143;SDS011;3103;49.492;8.474;2022-08-21T07:07:48;5.40;;;3.50;;
6143;SDS011;3103;49.492;8.474;2022-08-21T07:10:14;7.47;;;3.47;;
6143;SDS011;3103;49.492;8.474;2022-08-21T07:12:48;8.82;;;4.07;;
6143;SDS011;3103;49.492;8.474;2022-08-21T07:15:26;5.30;;;3.60;;
6143;SDS011;3103;49.492;8.474;2022-08-21T07:17:55;6.70;;;3.70;;
6143;SDS011;3103;49.492;8.474;2022-08-21T07:20:23;9.75;;;4.57;;
6143;SDS011;3103;49.492;8.474;2022-08-21T07:22:50;9.45;;;4.20;;
6143;SDS011;3103;49.492;8.474;2022-08-21T07:25:17;8.15;;;4.05;;
6143;SDS011;3103;49.492;8.474;2022-08-21T07:27:44;8.38;;;3.72;;
6143;SDS011;3103;49.492;8.474;2022-08-21T07:30:10;9.35;;;3.80;;
6143;SDS011;3103;49.492;8.474;2022-08-21T07:32:37;9.27;;;4.03;;
6143;SDS011;3103;49.492;8.474;2022-08-21T07:35:04;6.82;;;3.80;;
6143;SDS011;3103;49.492;8.474;2022-08-21T07:37:31;8.32;;;3.80;;
6143;SDS011;3103;49.492;8.474;2022-08-21T07:39:58;10.07;;;4.10;;
6143;SDS011;3103;49.492;8.474;2022-08-21T07:42:24;9.25;;;3.88;;
6143;SDS011;3103;49.492;8.474;2022-08-21T07:44:54;9.02;;;3.85;;
6143;SDS011;3103;49.492;8.474;2022-08-21T07:47:21;6.50;;;3.67;;
6143;SDS011;3103;49.492;8.474;2022-08-21T07:50:08;7.32;;;3.83;;
6143;SDS011;3103;49.492;8.474;2022-08-21T07:52:37;7.93;;;4.43;;
6143;SDS011;3103;49.492;8.474;2022-08-21T07:55:06;8.48;;;3.90;;
6143;SDS011;3103;49.492;8.474;2022-08-21T07:57:34;7.72;;;4.10;;
6143;SDS011;3103;49.492;8.474;2022-08-21T08:00:01;7.03;;;3.88;;
6143;SDS011;3103;49.492;8.474;2022-08-21T08:02:38;9.02;;;4.38;;
6143;SDS011;3103;49.492;8.474;2022-08-21T08:05:08;8.93;;;4.15;;
6143;SDS011;3103;49.492;8.474;2022-08-21T08:07:37;8.80;;;4.13;;
6143;SDS011;3103;49.492;8.474;2022-08-21T08:10:05;9.32;;;4.75;;
6143;SDS011;3103;49.492;8.474;2022-08-21T08:12:36;10.73;;;5.32;;
6143;SDS011;3103;49.492;8.474;2022-08-21T08:15:06;9.50;;;4.45;;
6143;SDS011;3103;49.492;8.474;2022-08-21T08:17:38;9.32;;;4.30;;
6143;SDS011;3103;49.492;8.474;2022-08-21T08:20:06;9.73;;;4.50;;
6143;SDS011;3103;49.492;8.474;2022-08-21T08:22:35;8.95;;;4.30;;
6143;SDS011;3103;49.492;8.474;2022-08-21T08:25:04;6.78;;;4.10;;
6143;SDS011;3103;49.492;8.474;2022-08-21T08:27:36;9.90;;;4.82;;
6143;SDS011;3103;49.492;8.474;2022-08-21T08:30:04;7.38;;;3.63;;
6143;SDS011;3103;49.492;8.474;2022-08-21T08:32:32;10.35;;;4.57;;
6143;SDS011;3103;49.492;8.474;2022-08-21T08:34:59;6.00;;;4.00;;
6143;SDS011;3103;49.492;8.474;2022-08-21T08:37:26;10.35;;;4.25;;
6143;SDS011;3103;49.492;8.474;2022-08-21T08:40:00;7.63;;;4.20;;
6143;SDS011;3103;49.492;8.474;2022-08-21T08:42:32;9.60;;;4.18;;
6143;SDS011;3103;49.492;8.474;2022-08-21T08:45:11;9.30;;;4.75;;
6143;SDS011;3103;49.492;8.474;2022-08-21T08:47:43;8.43;;;4.45;;
6143;SDS011;3103;49.492;8.474;2022-08-21T08:50:21;6.72;;;4.32;;
6143;SDS011;3103;49.492;8.474;2022-08-21T08:52:57;9.30;;;4.68;;
6143;SDS011;3103;49.492;8.474;2022-08-21T08:55:36;10.20;;;4.88;;
6143;SDS011;3103;49.492;8.474;2022-08-21T08:58:05;11.45;;;4.45;;
6143;SDS011;3103;49.492;8.474;2022-08-21T09:00:33;10.98;;;4.97;;
6143;SDS011;3103;49.492;8.474;2022-08-21T09:03:01;9.00;;;4.82;;
6143;SDS011;3103;49.492;8.474;2022-08-21T09:05:33;12.95;;;5.90;;
6143;SDS011;3103;49.492;8.474;2022-08-21T09:10:51;9.77;;;4.90;;
6143;SDS011;3103;49.492;8.474;2022-08-21T09:16:45;9.75;;;5.30;;
6143;SDS011;3103;49.492;8.474;2022-08-21T09:19:22;10.07;;;5.18;;
6143;SDS011;3103;49.492;8.474;2022-08-21T09:22:13;9.35;;;5.00;;
6143;SDS011;3103;49.492;8.474;2022-08-21T09:25:03;7.88;;;4.28;;
6143;SDS011;3103;49.492;8.474;2022-08-21T09:27:37;9.27;;;4.55;;
6143;SDS011;3103;49.492;8.474;2022-08-21T09:30:05;9.93;;;4.38;;
6143;SDS011;3103;49.492;8.474;2022-08-21T09:32:35;9.23;;;4.88;;
6143;SDS011;3103;49.492;8.474;2022-08-21T09:37:55;49.05;;;35.45;;
6143;SDS011;3103;49.492;8.474;2022-08-21T09:43:03;18.00;;;12.63;;
6143;SDS011;3103;49.492;8.474;2022-08-21T09:45:31;9.23;;;6.50;;
6143;SDS011;3103;49.492;8.474;2022-08-21T09:48:10;14.85;;;6.60;;
6143;SDS011;3103;49.492;8.474;2022-08-21T09:50:52;11.50;;;4.90;;
6143;SDS011;3103;49.492;8.474;2022-08-21T09:53:24;10.93;;;6.63;;
6143;SDS011;3103;49.492;8.474;2022-08-21T09:56:04;8.48;;;3.90;;
6143;SDS011;3103;49.492;8.474;2022-08-21T09:59:01;10.23;;;4.20;;
6143;SDS011;3103;49.492;8.474;2022-08-21T10:01:27;13.50;;;4.43;;
6143;SDS011;3103;49.492;8.474;2022-08-21T10:04:07;18.60;;;13.40;;
6143;SDS011;3103;49.492;8.474;2022-08-21T10:06:34;12.82;;;7.25;;
6143;SDS011;3103;49.492;8.474;2022-08-21T10:09:06;13.75;;;8.80;;
6143;SDS011;3103;49.492;8.474;2022-08-21T10:11:46;10.35;;;5.03;;
6143;SDS011;3103;49.492;8.474;2022-08-21T10:23:02;13.13;;;7.25;;
6143;SDS011;3103;49.492;8.474;2022-08-21T10:30:53;8.77;;;4.45;;
6143;SDS011;3103;49.492;8.474;2022-08-21T10:33:46;6.43;;;3.60;;
6143;SDS011;3103;49.492;8.474;2022-08-21T10:36:30;8.48;;;3.03;;
6143;SDS011;3103;49.492;8.474;2022-08-21T10:47:47;11.02;;;7.28;;
6143;SDS011;3103;49.492;8.474;2022-08-21T10:50:30;12.25;;;5.90;;
6143;SDS011;3103;49.492;8.474;2022-08-21T10:53:18;8.30;;;4.85;;
6143;SDS011;3103;49.492;8.474;2022-08-21T11:01:07;7.18;;;3.28;;
6143;SDS011;3103;49.492;8.474;2022-08-21T11:03:41;6.05;;;3.00;;
6143;SDS011;3103;49.492;8.474;2022-08-21T11:06:13;6.10;;;2.72;;
6143;SDS011;3103;49.492;8.474;2022-08-21T11:08:43;7.93;;;4.72;;
6143;SDS011;3103;49.492;8.474;2022-08-21T11:17:00;11.40;;;4.47;;
6143;SDS011;3103;49.492;8.474;2022-08-21T11:19:42;8.82;;;4.68;;
6143;SDS011;3103;49.492;8.474;2022-08-21T11:22:18;11.18;;;4.53;;
6143;SDS011;3103;49.492;8.474;2022-08-21T11:25:11;8.27;;;4.30;;
6143;SDS011;3103;49.492;8.474;2022-08-21T11:27:46;6.63;;;3.63;;
6143;SDS011;3103;49.492;8.474;2022-08-21T11:30:18;7.43;;;3.25;;
6143;SDS011;3103;49.492;8.474;2022-08-21T11:32:54;13.25;;;9.90;;
6143;SDS011;3103;49.492;8.474;2022-08-21T11:35:38;15.05;;;8.70;;
6143;SDS011;3103;49.492;8.474;2022-08-21T11:46:18;7.30;;;4.18;;
6143;SDS011;3103;49.492;8.474;2022-08-21T11:48:59;10.65;;;5.85;;
6143;SDS011;3103;49.492;8.474;2022-08-21T11:51:32;4.18;;;2.90;;
6143;SDS011;3103;49.492;8.474;2022-08-21T11:57:26;8.13;;;4.38;;
6143;SDS011;3103;49.492;8.474;2022-08-21T12:00:28;6.75;;;4.32;;
6143;SDS011;3103;49.492;8.474;2022-08-21T12:03:06;5.93;;;3.67;;
6143;SDS011;3103;49.492;8.474;2022-08-21T12:05:40;7.75;;;4.60;;
6143;SDS011;3103;49.492;8.474;2022-08-21T12:08:14;6.57;;;4.50;;
6143;SDS011;3103;49.492;8.474;2022-08-21T12:11:04;11.13;;;8.48;;
6143;SDS011;3103;49.492;8.474;2022-08-21T12:13:53;10.90;;;8.07;;
6143;SDS011;3103;49.492;8.474;2022-08-21T12:16:34;8.27;;;3.70;;
6143;SDS011;3103;49.492;8.474;2022-08-21T12:21:51;5.95;;;3.17;;
6143;SDS011;3103;49.492;8.474;2022-08-21T12:24:19;5.22;;;3.35;;
6143;SDS011;3103;49.492;8.474;2022-08-21T12:30:32;4.47;;;2.53;;
6143;SDS011;3103;49.492;8.474;2022-08-21T12:33:06;6.28;;;2.95;;
6143;SDS011;3103;49.492;8.474;2022-08-21T12:35:46;8.25;;;5.03;;
6143;SDS011;3103;49.492;8.474;2022-08-21T12:43:47;11.20;;;5.57;;
6143;SDS011;3103;49.492;8.474;2022-08-21T12:46:19;8.43;;;5.25;;
6143;SDS011;3103;49.492;8.474;2022-08-21T12:48:51;5.78;;;3.35;;
6143;SDS011;3103;49.492;8.474;2022-08-21T12:51:29;7.38;;;3.72;;
6143;SDS011;3103;49.492;8.474;2022-08-21T12:54:00;8.75;;;3.80;;
6143;SDS011;3103;49.492;8.474;2022-08-21T12:56:28;5.47;;;2.92;;
6143;SDS011;3103;49.492;8.474;2022-08-21T12:59:01;9.23;;;3.80;;
6143;SDS011;3103;49.492;8.474;2022-08-21T13:01:54;8.38;;;4.95;;
6143;SDS011;3103;49.492;8.474;2022-08-21T13:04:22;7.97;;;4.30;;
6143;SDS011;3103;49.492;8.474;2022-08-21T13:06:58;18.73;;;4.78;;
6143;SDS011;3103;49.492;8.474;2022-08-21T13:09:27;11.45;;;3.08;;
6143;SDS011;3103;49.492;8.474;2022-08-21T13:11:56;6.40;;;3.47;;
6143;SDS011;3103;49.492;8.474;2022-08-21T13:14:37;7.30;;;3.05;;
6143;SDS011;3103;49.492;8.474;2022-08-21T13:17:13;6.40;;;3.33;;
6143;SDS011;3103;49.492;8.474;2022-08-21T13:19:55;4.53;;;2.72;;
6143;SDS011;3103;49.492;8.474;2022-08-21T13:22:28;5.35;;;2.90;;
6143;SDS011;3103;49.492;8.474;2022-08-21T13:25:01;4.90;;;2.75;;
6143;SDS011;3103;49.492;8.474;2022-08-21T13:27:33;8.27;;;3.05;;
6143;SDS011;3103;49.492;8.474;2022-08-21T13:30:17;7.97;;;2.92;;
6143;SDS011;3103;49.492;8.474;2022-08-21T13:32:48;6.20;;;2.78;;
6143;SDS011;3103;49.492;8.474;2022-08-21T13:35:19;4.20;;;2.90;;
6143;SDS011;3103;49.492;8.474;2022-08-21T13:37:49;7.30;;;2.75;;
6143;SDS011;3103;49.492;8.474;2022-08-21T13:40:29;6.05;;;3.03;;
6143;SDS011;3103;49.492;8.474;2022-08-21T13:43:10;5.68;;;3.00;;
6143;SDS011;3103;49.492;8.474;2022-08-21T13:45:44;6.78;;;2.78;;
6143;SDS011;3103;49.492;8.474;2022-08-21T13:48:15;8.57;;;3.20;;
6143;SDS011;3103;49.492;8.474;2022-08-21T13:50:42;4.95;;;2.60;;
6143;SDS011;3103;49.492;8.474;2022-08-21T13:56:24;4.60;;;3.00;;
6143;SDS011;3103;49.492;8.474;2022-08-21T13:58:53;5.20;;;2.55;;
6143;SDS011;3103;49.492;8.474;2022-08-21T14:01:23;6.22;;;3.70;;
6143;SDS011;3103;49.492;8.474;2022-08-21T14:03:56;6.82;;;2.85;;
6143;SDS011;3103;49.492;8.474;2022-08-21T14:06:44;4.43;;;2.53;;
6143;SDS011;3103;49.492;8.474;2022-08-21T14:09:54;5.35;;;2.67;;
6143;SDS011;3103;49.492;8.474;2022-08-21T14:12:16;5.15;;;2.97;;
6143;SDS011;3103;49.492;8.474;2022-08-21T14:14:50;5.70;;;2.70;;
6143;SDS011;3103;49.492;8.474;2022-08-21T14:17:31;4.18;;;2.53;;
6143;SDS011;3103;49.492;8.474;2022-08-21T14:20:00;4.70;;;3.10;;
6143;SDS011;3103;49.492;8.474;2022-08-21T14:22:40;6.07;;;2.85;;
6143;SDS011;3103;49.492;8.474;2022-08-21T14:27:50;9.13;;;5.97;;
6143;SDS011;3103;49.492;8.474;2022-08-21T14:30:27;16.17;;;10.35;;
6143;SDS011;3103;49.492;8.474;2022-08-21T14:32:56;20.77;;;15.63;;
6143;SDS011;3103;49.492;8.474;2022-08-21T14:35:23;16.08;;;12.00;;
6143;SDS011;3103;49.492;8.474;2022-08-21T14:37:51;12.60;;;8.45;;
6143;SDS011;3103;49.492;8.474;2022-08-21T14:40:20;15.40;;;12.18;;
6143;SDS011;3103;49.492;8.474;2022-08-21T14:42:49;59.22;;;43.85;;
6143;SDS011;3103;49.492;8.474;2022-08-21T14:45:17;40.75;;;32.65;;
6143;SDS011;3103;49.492;8.474;2022-08-21T14:47:53;36.97;;;28.10;;
6143;SDS011;3103;49.492;8.474;2022-08-21T14:50:21;33.53;;;28.27;;
6143;SDS011;3103;49.492;8.474;2022-08-21T14:52:48;49.15;;;39.72;;
6143;SDS011;3103;49.492;8.474;2022-08-21T14:55:16;13.20;;;7.07;;
6143;SDS011;3103;49.492;8.474;2022-08-21T14:57:45;12.13;;;8.07;;
6143;SDS011;3103;49.492;8.474;2022-08-21T15:00:14;20.58;;;16.38;;
6143;SDS011;3103;49.492;8.474;2022-08-21T15:02:44;17.30;;;15.20;;
6143;SDS011;3103;49.492;8.474;2022-08-21T15:05:11;18.50;;;16.52;;
6143;SDS011;3103;49.492;8.474;2022-08-21T15:07:50;12.88;;;7.53;;
6143;SDS011;3103;49.492;8.474;2022-08-21T15:10:17;14.65;;;12.68;;
6143;SDS011;3103;49.492;8.474;2022-08-21T15:12:44;8.52;;;7.05;;
6143;SDS011;3103;49.492;8.474;2022-08-21T15:15:11;10.90;;;6.60;;
6143;SDS011;3103;49.492;8.474;2022-08-21T15:17:43;6.00;;;4.45;;
6143;SDS011;3103;49.492;8.474;2022-08-21T15:20:14;9.32;;;4.13;;
6143;SDS011;3103;49.492;8.474;2022-08-21T15:22:41;14.15;;;11.15;;
6143;SDS011;3103;49.492;8.474;2022-08-21T15:25:13;16.13;;;10.55;;
6143;SDS011;3103;49.492;8.474;2022-08-21T15:27:40;10.38;;;7.90;;
6143;SDS011;3103;49.492;8.474;2022-08-21T15:30:07;13.57;;;10.15;;
6143;SDS011;3103;49.492;8.474;2022-08-21T15:32:34;19.00;;;11.80;;
6143;SDS011;3103;49.492;8.474;2022-08-21T15:35:00;8.05;;;5.53;;
6143;SDS011;3103;49.492;8.474;2022-08-21T15:37:29;10.60;;;6.78;;
6143;SDS011;3103;49.492;8.474;2022-08-21T15:39:55;8.18;;;5.25;;
6143;SDS011;3103;49.492;8.474;2022-08-21T15:42:22;7.88;;;6.68;;
6143;SDS011;3103;49.492;8.474;2022-08-21T15:44:53;10.55;;;8.02;;
6143;SDS011;3103;49.492;8.474;2022-08-21T15:47:21;5.85;;;4.60;;
6143;SDS011;3103;49.492;8.474;2022-08-21T15:49:51;8.80;;;5.85;;
6143;SDS011;3103;49.492;8.474;2022-08-21T15:52:19;5.88;;;3.63;;
6143;SDS011;3103;49.492;8.474;2022-08-21T15:54:47;12.85;;;6.35;;
6143;SDS011;3103;49.492;8.474;2022-08-21T15:57:15;9.27;;;5.38;;
6143;SDS011;3103;49.492;8.474;2022-08-21T15:59:46;13.63;;;5.63;;
6143;SDS011;3103;49.492;8.474;2022-08-21T16:02:17;13.65;;;10.60;;
6143;SDS011;3103;49.492;8.474;2022-08-21T16:04:55;11.88;;;9.48;;
6143;SDS011;3103;49.492;8.474;2022-08-21T16:07:23;16.23;;;10.90;;
6143;SDS011;3103;49.492;8.474;2022-08-21T16:09:50;31.85;;;26.67;;
6143;SDS011;3103;49.492;8.474;2022-08-21T16:12:19;51.30;;;43.33;;
6143;SDS011;3103;49.492;8.474;2022-08-21T16:14:50;60.78;;;43.60;;
6143;SDS011;3103;49.492;8.474;2022-08-21T16:17:18;47.80;;;35.97;;
6143;SDS011;3103;49.492;8.474;2022-08-21T16:19:47;57.17;;;45.08;;
6143;SDS011;3103;49.492;8.474;2022-08-21T16:22:13;16.48;;;13.45;;
6143;SDS011;3103;49.492;8.474;2022-08-21T16:24:40;6.70;;;4.10;;
6143;SDS011;3103;49.492;8.474;2022-08-21T16:27:07;12.10;;;9.75;;
6143;SDS011;3103;49.492;8.474;2022-08-21T16:29:35;5.72;;;3.70;;
6143;SDS011;3103;49.492;8.474;2022-08-21T16:32:05;17.83;;;13.80;;
6143;SDS011;3103;49.492;8.474;2022-08-21T16:34:33;6.40;;;3.40;;
6143;SDS011;3103;49.492;8.474;2022-08-21T16:37:01;7.95;;;4.35;;
6143;SDS011;3103;49.492;8.474;2022-08-21T16:39:27;5.63;;;3.35;;
6143;SDS011;3103;49.492;8.474;2022-08-21T16:41:54;7.18;;;3.80;;
6143;SDS011;3103;49.492;8.474;2022-08-21T16:44:21;8.00;;;3.10;;
6143;SDS011;3103;49.492;8.474;2022-08-21T16:46:48;9.57;;;3.55;;
6143;SDS011;3103;49.492;8.474;2022-08-21T16:49:15;5.55;;;3.15;;
6143;SDS011;3103;49.492;8.474;2022-08-21T16:51:42;5.35;;;3.25;;